Time;durP1;ratioP1;P1;durP2;ratioP2;P2;SDS_P1;SDS_P2;PMS_P1;PMS_P2;Temp;Humidity;BMP_temperature;BMP_pressure;BME280_temperature;BME280_humidity;BME280_pressure;Samples;Min_cycle;Max_cycle;Signal;HPM_P1;HPM_P2
2023/01/18 00:01:30;;;;;;;;;;;;;;;25.97;28.69;99600.41;5012980;28;2453;-24
2023/01/18 00:03:55;;;;;;;;;;;;;;;25.94;28.61;99598.13;5019132;28;992;-24
2023/01/18 00:06:21;;;;;;;;;;;;;;;26.31;28.26;99597.78;5019633;28;997;-24
2023/01/18 00:08:46;;;;;;;;;;;;;;;26.15;28.26;99589.88;5019494;28;1128;-24
2023/01/18 00:11:12;;;;;;;;;;;;;;;25.98;28.70;99593.97;5019380;28;1101;-24
2023/01/18 00:13:38;;;;;;;;;;;;;;;25.87;28.62;99596.25;5019384;28;1446;-24
2023/01/18 00:16:03;;;;;;;;;;;;;;;25.91;28.71;99588.56;5019270;28;1271;-24
2023/01/18 00:18:29;;;;;;;;;;;;;;;25.87;28.76;99582.75;5019272;28;1111;-24
2023/01/18 00:20:54;;;;;;;;;;;;;;;26.00;28.48;99595.44;5019326;28;1977;-24
2023/01/18 00:23:19;;;;;;;;;;;;;;;26.02;28.49;99590.69;5019619;28;1079;-24
2023/01/18 00:25:44;;;;;;;;;;;;;;;26.17;28.46;99601.25;5019261;28;1279;-24
2023/01/18 00:28:10;;;;;;;;;;;;;;;26.16;28.26;99605.00;5019318;28;1121;-24
2023/01/18 00:30:35;;;;;;;;;;;;;;;25.86;28.59;99599.13;5019013;28;1863;-24
2023/01/18 00:33:00;;;;;;;;;;;;;;;25.85;28.88;99601.00;5018969;28;1152;-24
2023/01/18 00:35:26;;;;;;;;;;;;;;;25.68;29.29;99601.34;5019224;28;1003;-23
2023/01/18 00:37:51;;;;;;;;;;;;;;;26.09;28.07;99597.94;5018958;28;1219;-24
2023/01/18 00:40:17;;;;;;;;;;;;;;;25.89;28.62;99601.41;5019090;28;1971;-24
2023/01/18 00:45:26;;;;;;;;;;;;;;;25.74;29.23;99594.31;5018641;28;1028;-24
2023/01/18 00:47:51;;;;;;;;;;;;;;;25.97;28.67;99598.53;5019077;28;1008;-24
2023/01/18 00:50:18;;;;;;;;;;;;;;;25.85;28.72;99592.06;5018930;28;1106;-23
2023/01/18 00:52:45;;;;;;;;;;;;;;;25.60;29.16;99584.50;5019347;28;1071;-24
2023/01/18 00:55:11;;;;;;;;;;;;;;;25.77;29.13;99587.69;5018560;28;1049;-24
2023/01/18 00:57:36;;;;;;;;;;;;;;;26.02;28.60;99598.75;5018765;28;1049;-24
2023/01/18 01:00:02;;;;;;;;;;;;;;;25.96;28.67;99591.47;5018174;28;1906;-24
2023/01/18 01:02:27;;;;;;;;;;;;;;;26.00;28.44;99598.13;5018661;28;1103;-24
2023/01/18 01:07:36;;;;;;;;;;;;;;;26.02;28.52;99606.00;5018333;28;1183;-24
2023/01/18 01:10:07;;;;;;;;;;;;;;;25.94;28.36;99601.66;5018507;28;1128;-24
2023/01/18 01:26:12;;;;;;;;;;;;;;;26.12;28.44;99576.81;5017889;28;1077;-24
2023/01/18 01:28:38;;;;;;;;;;;;;;;26.01;28.41;99559.34;5018707;28;1132;-24
2023/01/18 01:31:04;;;;;;;;;;;;;;;25.96;28.51;99561.03;5017389;28;1930;-24
2023/01/18 01:33:30;;;;;;;;;;;;;;;25.89;28.77;99569.91;5017005;28;1120;-24
2023/01/18 01:35:55;;;;;;;;;;;;;;;26.02;28.82;99570.97;5018110;28;1086;-23
2023/01/18 01:38:21;;;;;;;;;;;;;;;25.88;28.62;99565.56;5017424;28;1052;-24
2023/01/18 01:40:54;;;;;;;;;;;;;;;25.95;28.54;99586.28;5017843;28;1959;-24
2023/01/18 01:43:35;;;;;;;;;;;;;;;26.26;28.45;99592.97;5018030;28;1007;-24
2023/01/18 01:46:00;;;;;;;;;;;;;;;26.20;28.10;99593.81;5016497;28;1080;-24
2023/01/18 01:48:25;;;;;;;;;;;;;;;26.01;28.81;99591.69;5016742;28;1084;-24
2023/01/18 01:50:51;;;;;;;;;;;;;;;26.04;28.67;99582.38;5017880;28;1059;-23
2023/01/18 01:53:16;;;;;;;;;;;;;;;25.95;28.84;99580.91;5017786;28;1192;-24
2023/01/18 01:55:41;;;;;;;;;;;;;;;26.05;28.41;99578.66;5016279;28;1064;-24
2023/01/18 01:58:09;;;;;;;;;;;;;;;25.96;28.61;99578.00;5016086;28;1160;-24
2023/01/18 02:00:34;;;;;;;;;;;;;;;26.29;28.27;99574.53;5017034;28;2472;-23
2023/01/18 02:03:03;;;;;;;;;;;;;;;26.04;28.63;99577.00;5017221;28;1139;-23
2023/01/18 02:05:28;;;;;;;;;;;;;;;25.92;28.90;99577.56;5015883;28;1020;-24
2023/01/18 02:07:54;;;;;;;;;;;;;;;25.76;28.92;99564.47;5017260;28;1128;-24
2023/01/18 02:10:20;;;;;;;;;;;;;;;25.85;29.31;99571.34;5015758;28;1235;-24
2023/01/18 02:12:46;;;;;;;;;;;;;;;25.88;29.23;99562.03;5017371;28;1128;-23
2023/01/18 02:15:11;;;;;;;;;;;;;;;25.98;28.72;99564.31;5015577;28;1116;-24
2023/01/18 02:17:39;;;;;;;;;;;;;;;25.84;28.88;99566.97;5017257;28;1135;-24
2023/01/18 02:20:24;;;;;;;;;;;;;;;25.62;29.49;99564.44;5004049;28;1910;-23
2023/01/18 02:22:52;;;;;;;;;;;;;;;25.89;29.11;99555.63;5015642;28;1032;-24
2023/01/18 02:25:30;;;;;;;;;;;;;;;25.90;28.67;99555.41;5016553;28;1027;-24
2023/01/18 02:28:15;;;;;;;;;;;;;;;25.87;28.87;99553.13;5016947;28;1107;-24
2023/01/18 02:30:46;;;;;;;;;;;;;;;25.94;28.92;99550.44;5016786;28;1728;-23
2023/01/18 02:33:16;;;;;;;;;;;;;;;25.98;28.95;99562.47;5015475;28;1104;-23
2023/01/18 02:35:41;;;;;;;;;;;;;;;25.89;28.81;99555.63;5016047;28;1160;-24
2023/01/18 02:38:18;;;;;;;;;;;;;;;25.77;29.17;99550.00;5016610;28;1016;-24
2023/01/18 02:40:46;;;;;;;;;;;;;;;25.69;29.10;99551.00;5017128;28;1971;-24
2023/01/18 02:48:40;;;;;;;;;;;;;;;25.89;28.69;99555.63;5015547;28;1156;-23
2023/01/18 02:51:06;;;;;;;;;;;;;;;26.08;28.71;99553.97;5015380;28;1024;-23
2023/01/18 02:53:32;;;;;;;;;;;;;;;25.98;28.49;99553.53;5016721;28;1135;-24
2023/01/18 02:56:20;;;;;;;;;;;;;;;25.98;28.37;99559.78;5016199;28;1008;-24
2023/01/18 02:58:57;;;;;;;;;;;;;;;25.90;29.07;99568.03;5015852;28;1927;-24
2023/01/18 03:01:32;;;;;;;;;;;;;;;26.05;28.33;99567.88;5015882;28;2530;-23
2023/01/18 03:03:59;;;;;;;;;;;;;;;25.95;28.32;99565.56;5016368;28;986;-24
2023/01/18 03:06:26;;;;;;;;;;;;;;;26.10;28.62;99556.47;5016650;28;1040;-23
2023/01/18 03:08:51;;;;;;;;;;;;;;;25.65;29.01;99553.28;5016046;28;887;-24
2023/01/18 03:11:16;;;;;;;;;;;;;;;25.77;28.92;99552.69;5014913;28;1207;-24
2023/01/18 03:13:48;;;;;;;;;;;;;;;25.91;28.56;99559.75;5016381;28;1120;-24
2023/01/18 03:16:14;;;;;;;;;;;;;;;25.79;28.95;99548.75;5015798;28;1100;-23
2023/01/18 03:19:00;;;;;;;;;;;;;;;25.97;28.65;99555.44;5014981;28;1056;-23
2023/01/18 03:21:37;;;;;;;;;;;;;;;25.89;28.94;99553.72;5014556;28;1108;-23
2023/01/18 03:24:03;;;;;;;;;;;;;;;25.92;28.85;99552.50;5016505;28;1215;-22
2023/01/18 03:26:29;;;;;;;;;;;;;;;26.04;28.71;99544.66;5015195;28;1155;-22
2023/01/18 03:34:31;;;;;;;;;;;;;;;25.91;28.83;99551.69;5012659;28;994;-22
2023/01/18 03:36:57;;;;;;;;;;;;;;;26.09;28.23;99552.13;5019306;28;1152;-23
2023/01/18 03:39:22;;;;;;;;;;;;;;;25.96;28.47;99559.13;5018487;28;1887;-24
2023/01/18 03:41:48;;;;;;;;;;;;;;;25.98;28.41;99559.78;5019811;28;1059;-23
2023/01/18 03:44:16;;;;;;;;;;;;;;;25.95;28.48;99568.28;5017858;28;1143;-23
2023/01/18 03:46:42;;;;;;;;;;;;;;;26.14;28.17;99560.44;5019910;28;1067;-23
2023/01/18 03:49:08;;;;;;;;;;;;;;;26.01;28.46;99570.13;5019993;28;1020;-23
2023/01/18 03:51:33;;;;;;;;;;;;;;;25.94;28.48;99573.88;5018133;28;1172;-24
2023/01/18 03:54:14;;;;;;;;;;;;;;;25.91;28.59;99567.84;5020046;28;1152;-24
2023/01/18 03:56:42;;;;;;;;;;;;;;;26.03;28.40;99575.31;5019045;28;992;-24
2023/01/18 03:59:08;;;;;;;;;;;;;;;25.91;28.49;99573.22;5019559;28;1898;-23
2023/01/18 04:01:33;;;;;;;;;;;;;;;25.90;28.68;99589.59;5019626;28;2583;-24
2023/01/18 04:03:58;;;;;;;;;;;;;;;26.09;28.58;99581.78;5018214;28;1171;-24
2023/01/18 04:06:24;;;;;;;;;;;;;;;26.23;28.39;99580.75;5019845;28;1107;-24
2023/01/18 04:08:50;;;;;;;;;;;;;;;25.97;28.55;99578.84;5019230;28;1541;-23
2023/01/18 04:11:15;;;;;;;;;;;;;;;25.90;28.98;99579.66;5019769;28;1100;-23
2023/01/18 04:13:40;;;;;;;;;;;;;;;25.94;28.97;99581.94;5019566;28;1000;-24
2023/01/18 04:16:06;;;;;;;;;;;;;;;26.01;28.49;99582.78;5019243;28;1265;-24
2023/01/18 04:18:31;;;;;;;;;;;;;;;25.90;28.75;99589.59;5019349;28;1148;-24
2023/01/18 04:20:56;;;;;;;;;;;;;;;26.08;28.50;99574.69;5018449;28;2031;-23
2023/01/18 04:23:22;;;;;;;;;;;;;;;26.04;28.81;99574.31;5019292;28;1148;-23
2023/01/18 04:25:48;;;;;;;;;;;;;;;25.87;28.78;99573.84;5019374;28;1127;-24
2023/01/18 04:28:14;;;;;;;;;;;;;;;25.84;28.89;99568.88;5019575;28;1128;-24
2023/01/18 04:30:39;;;;;;;;;;;;;;;25.46;29.63;99570.16;5019134;28;2368;-23
2023/01/18 04:33:05;;;;;;;;;;;;;;;25.77;29.35;99567.00;5018901;28;1068;-24
2023/01/18 04:35:30;;;;;;;;;;;;;;;25.87;29.05;99568.47;5019360;28;1054;-24
2023/01/18 04:37:55;;;;;;;;;;;;;;;25.88;28.93;99575.50;5018995;28;1249;-24
2023/01/18 04:40:20;;;;;;;;;;;;;;;25.74;29.51;99582.72;5019312;28;1902;-24
2023/01/18 04:42:52;;;;;;;;;;;;;;;25.60;29.48;99582.63;5018959;28;1146;-24
2023/01/18 04:45:18;;;;;;;;;;;;;;;25.68;29.76;99590.56;5018733;28;1079;-24
2023/01/18 04:47:43;;;;;;;;;;;;;;;24.99;31.17;99585.00;5018463;28;1068;-24
2023/01/18 04:50:09;;;;;;;;;;;;;;;24.64;31.77;99575.00;5018645;28;996;-24
2023/01/18 04:52:34;;;;;;;;;;;;;;;24.25;32.59;99570.97;5018679;28;1360;-24
2023/01/18 04:55:00;;;;;;;;;;;;;;;24.43;32.48;99573.19;5022774;28;1056;-23
2023/01/18 04:57:25;;;;;;;;;;;;;;;25.42;31.34;99581.31;5019450;28;1062;-20
2023/01/18 04:59:50;;;;;;;;;;;;;;;25.50;30.78;99579.47;5018817;28;2022;-26
2023/01/18 05:02:16;;;;;;;;;;;;;;;25.39;30.65;99570.13;5018716;28;1191;-26
2023/01/18 05:04:42;;;;;;;;;;;;;;;26.44;28.95;99565.47;5018507;28;1076;-26
2023/01/18 05:07:07;;;;;;;;;;;;;;;26.20;28.76;99569.53;5018295;28;1227;-26
2023/01/18 05:09:33;;;;;;;;;;;;;;;25.73;29.30;99575.66;5018536;28;1231;-23
2023/01/18 05:11:58;;;;;;;;;;;;;;;25.95;29.51;99562.88;5018784;28;1075;-25
2023/01/18 05:14:23;;;;;;;;;;;;;;;25.38;30.12;99566.59;5018230;28;1064;-24
2023/01/18 05:16:48;;;;;;;;;;;;;;;25.94;29.42;99568.47;5018338;28;1188;-25
2023/01/18 05:19:14;;;;;;;;;;;;;;;25.92;29.17;99563.28;5018474;28;1922;-26
2023/01/18 05:21:40;;;;;;;;;;;;;;;25.97;29.27;99563.50;5017555;28;1287;-25
2023/01/18 05:24:05;;;;;;;;;;;;;;;25.77;29.69;99574.22;5018236;28;1075;-26
2023/01/18 05:26:30;;;;;;;;;;;;;;;25.83;29.78;99562.63;5018557;28;1123;-25
2023/01/18 05:28:56;;;;;;;;;;;;;;;25.94;29.39;99576.56;5018545;28;1164;-24
2023/01/18 05:31:21;;;;;;;;;;;;;;;25.89;29.18;99590.66;5018205;28;2165;-24
2023/01/18 05:33:47;;;;;;;;;;;;;;;25.70;29.49;99589.53;5017722;28;1060;-24
2023/01/18 05:36:12;;;;;;;;;;;;;;;25.47;30.02;99588.81;5017507;28;1040;-25
2023/01/18 05:38:37;;;;;;;;;;;;;;;25.78;29.39;99581.28;5018051;28;1122;-25
2023/01/18 05:41:03;;;;;;;;;;;;;;;25.89;29.36;99596.03;5017956;28;1902;-25
2023/01/18 05:43:28;;;;;;;;;;;;;;;25.73;29.46;99594.50;5017351;28;1094;-25
2023/01/18 05:45:53;;;;;;;;;;;;;;;25.31;30.44;99596.19;5017170;28;1029;-25
2023/01/18 05:48:19;;;;;;;;;;;;;;;25.87;29.32;99590.84;5017317;28;1103;-25
2023/01/18 05:50:44;;;;;;;;;;;;;;;25.91;29.04;99596.63;5015990;28;1048;-24
2023/01/18 05:53:09;;;;;;;;;;;;;;;25.77;29.50;99598.47;5007640;28;1101;-24
2023/01/18 05:55:35;;;;;;;;;;;;;;;25.40;30.24;99609.47;5008766;28;1204;-24
2023/01/18 05:58:00;;;;;;;;;;;;;;;25.92;29.30;99601.81;5001483;28;1404;-23
2023/01/18 06:00:26;;;;;;;;;;;;;;;25.98;29.20;99610.13;4997441;28;2184;-24
2023/01/18 06:02:51;;;;;;;;;;;;;;;25.63;29.51;99602.97;4997925;28;1299;-24
2023/01/18 06:05:16;;;;;;;;;;;;;;;25.63;30.15;99601.13;5016179;28;1056;-24
2023/01/18 06:07:42;;;;;;;;;;;;;;;25.99;29.18;99601.03;5017480;28;1114;-24
2023/01/18 06:10:07;;;;;;;;;;;;;;;26.11;29.03;99598.56;5016495;28;1154;-23
2023/01/18 06:12:33;;;;;;;;;;;;;;;25.93;29.41;99599.97;5002484;28;1333;-25
2023/01/18 06:14:58;;;;;;;;;;;;;;;26.47;28.56;99597.41;5000468;28;1290;-24
2023/01/18 06:17:24;;;;;;;;;;;;;;;26.29;28.67;99597.97;5014246;28;1492;-24
2023/01/18 06:19:49;;;;;;;;;;;;;;;25.97;29.32;99595.84;5016733;28;1898;-25
2023/01/18 06:22:14;;;;;;;;;;;;;;;25.71;29.91;99592.03;5016687;28;1136;-25
2023/01/18 06:24:40;;;;;;;;;;;;;;;26.01;29.43;99590.84;5017211;28;1081;-25
2023/01/18 06:27:06;;;;;;;;;;;;;;;26.24;28.93;99597.75;5017144;28;1016;-25
2023/01/18 06:29:31;;;;;;;;;;;;;;;26.16;29.14;99607.69;5016222;28;1084;-25
2023/01/18 06:31:57;;;;;;;;;;;;;;;26.22;29.01;99611.44;5003562;28;2479;-25
2023/01/18 06:34:22;;;;;;;;;;;;;;;26.65;28.52;99606.72;5016939;28;1207;-25
2023/01/18 06:36:47;;;;;;;;;;;;;;;26.27;28.98;99617.06;5017041;28;1105;-25
2023/01/18 06:39:12;;;;;;;;;;;;;;;26.12;28.99;99621.78;5016941;28;1914;-25
2023/01/18 06:41:38;;;;;;;;;;;;;;;26.33;28.97;99622.66;5016801;28;1140;-25
2023/01/18 06:44:03;;;;;;;;;;;;;;;26.62;28.22;99632.25;5016631;28;1164;-25
2023/01/18 06:46:28;;;;;;;;;;;;;;;26.19;28.77;99635.28;5016291;28;1037;-25
2023/01/18 06:48:54;;;;;;;;;;;;;;;26.08;29.30;99642.06;5016828;28;1190;-25
2023/01/18 06:51:20;;;;;;;;;;;;;;;25.99;29.30;99634.19;5016629;28;1088;-25
2023/01/18 06:53:46;;;;;;;;;;;;;;;26.15;29.39;99646.47;5016888;28;1104;-25
2023/01/18 06:56:13;;;;;;;;;;;;;;;26.37;28.36;99648.19;5016791;28;1020;-25
2023/01/18 06:58:38;;;;;;;;;;;;;;;26.16;28.73;99664.28;5016975;28;1148;-25
2023/01/18 07:01:03;;;;;;;;;;;;;;;26.23;29.26;99676.94;5016765;28;2608;-25
2023/01/18 07:03:29;;;;;;;;;;;;;;;26.70;28.07;99676.25;5016478;28;1083;-25
2023/01/18 07:05:55;;;;;;;;;;;;;;;26.95;28.01;99679.16;5016717;28;995;-25
2023/01/18 07:08:20;;;;;;;;;;;;;;;26.30;28.72;99688.59;5016367;28;1094;-25
2023/01/18 07:10:49;;;;;;;;;;;;;;;26.41;28.86;99676.41;5004596;28;1135;-25
2023/01/18 07:13:14;;;;;;;;;;;;;;;26.33;29.22;99688.22;5005816;28;1159;-25
2023/01/18 07:15:39;;;;;;;;;;;;;;;26.78;28.83;99693.06;5007907;28;1314;-25
2023/01/18 07:18:05;;;;;;;;;;;;;;;26.71;28.37;99689.50;5016487;28;1168;-25
2023/01/18 07:20:31;;;;;;;;;;;;;;;26.48;29.00;99688.03;5016143;28;1906;-25
2023/01/18 07:22:57;;;;;;;;;;;;;;;26.62;28.52;99686.22;5011108;28;1266;-25
2023/01/18 07:25:22;;;;;;;;;;;;;;;26.92;28.36;99684.97;5015854;28;1100;-26
2023/01/18 07:27:48;;;;;;;;;;;;;;;26.64;28.38;99694.91;5016112;28;1072;-26
2023/01/18 07:30:13;;;;;;;;;;;;;;;26.41;28.69;99688.03;5016073;28;1071;-26
2023/01/18 07:32:38;;;;;;;;;;;;;;;26.32;29.07;99701.88;5016138;28;1148;-26
2023/01/18 07:35:04;;;;;;;;;;;;;;;26.55;28.84;99693.44;5015597;28;1132;-25
2023/01/18 07:37:29;;;;;;;;;;;;;;;26.79;28.37;99702.00;5014886;28;1004;-26
2023/01/18 07:39:54;;;;;;;;;;;;;;;26.55;28.54;99698.84;5015866;28;1906;-26
2023/01/18 07:42:20;;;;;;;;;;;;;;;26.46;29.09;99695.50;5015468;28;1103;-26
2023/01/18 07:44:45;;;;;;;;;;;;;;;26.57;28.70;99687.84;5016064;28;1016;-25
2023/01/18 07:47:10;;;;;;;;;;;;;;;26.39;29.35;99683.88;5015722;28;1458;-25
2023/01/18 07:49:36;;;;;;;;;;;;;;;26.68;28.60;99689.09;5001493;28;1191;-26
2023/01/18 07:52:01;;;;;;;;;;;;;;;26.48;28.93;99701.53;5001165;28;1314;-25
2023/01/18 07:54:26;;;;;;;;;;;;;;;26.56;28.94;99707.78;5012027;28;1187;-26
2023/01/18 07:56:52;;;;;;;;;;;;;;;26.92;29.34;99703.03;5015562;28;1016;-26
2023/01/18 07:59:17;;;;;;;;;;;;;;;26.94;28.62;99711.75;5015569;28;1902;-25
2023/01/18 08:01:42;;;;;;;;;;;;;;;26.75;29.26;99706.13;5007367;28;2179;-25
2023/01/18 08:04:08;;;;;;;;;;;;;;;26.63;29.19;99716.69;5016151;28;1180;-25
2023/01/18 08:06:33;;;;;;;;;;;;;;;26.26;30.01;99720.50;5014771;28;1024;-25
2023/01/18 08:08:58;;;;;;;;;;;;;;;26.61;29.71;99724.19;5013801;28;984;-25
2023/01/18 08:11:24;;;;;;;;;;;;;;;26.49;29.87;99722.06;5011927;28;1104;-25
2023/01/18 08:13:51;;;;;;;;;;;;;;;26.44;29.81;99711.06;5004684;28;1349;-25
2023/01/18 08:16:17;;;;;;;;;;;;;;;25.53;31.53;99709.16;4997184;28;1309;-25
2023/01/18 08:18:44;;;;;;;;;;;;;;;25.72;31.27;99705.97;4995834;28;1085;-25
2023/01/18 08:21:12;;;;;;;;;;;;;;;26.28;30.26;99701.44;5009649;28;1903;-25
2023/01/18 08:23:38;;;;;;;;;;;;;;;26.47;29.26;99707.97;5017784;28;853;-24
2023/01/18 08:26:03;;;;;;;;;;;;;;;27.00;29.66;99719.84;5018954;28;1040;-25
2023/01/18 08:28:28;;;;;;;;;;;;;;;26.74;29.50;99716.06;5019166;28;1048;-26
2023/01/18 08:31:02;;;;;;;;;;;;;;;26.57;29.41;99717.50;5019014;28;1081;-24
2023/01/18 08:33:28;;;;;;;;;;;;;;;26.74;29.42;99718.78;4998867;28;1259;-25
2023/01/18 08:35:53;;;;;;;;;;;;;;;26.19;30.70;99697.28;5001179;28;1385;-25
2023/01/18 08:38:18;;;;;;;;;;;;;;;26.92;29.31;99711.13;5014117;28;1126;-25
2023/01/18 08:40:43;;;;;;;;;;;;;;;26.89;29.60;99731.28;5019218;28;1894;-25
2023/01/18 08:43:10;;;;;;;;;;;;;;;26.88;29.78;99722.34;5018873;28;1033;-26
2023/01/18 08:45:35;;;;;;;;;;;;;;;27.00;29.63;99724.41;5006325;28;1218;-25
2023/01/18 08:48:01;;;;;;;;;;;;;;;26.99;29.43;99709.25;5012415;28;1362;-25
2023/01/18 08:50:27;;;;;;;;;;;;;;;26.78;30.15;99722.75;5018925;28;985;-26
2023/01/18 08:52:52;;;;;;;;;;;;;;;26.92;29.86;99730.84;5018653;28;1031;-26
2023/01/18 08:55:18;;;;;;;;;;;;;;;26.92;29.60;99717.34;5008265;28;1347;-25
2023/01/18 08:57:43;;;;;;;;;;;;;;;27.10;29.56;99726.72;5015238;28;1263;-24
2023/01/18 09:00:09;;;;;;;;;;;;;;;27.19;29.33;99728.19;5016503;28;1967;-24
2023/01/18 09:02:34;;;;;;;;;;;;;;;27.33;29.01;99726.28;5017541;28;1026;-25
2023/01/18 09:04:59;;;;;;;;;;;;;;;27.28;29.44;99715.28;5017499;28;1215;-25
2023/01/18 09:07:24;;;;;;;;;;;;;;;27.48;29.07;99719.81;5018001;28;1065;-25
2023/01/18 09:09:50;;;;;;;;;;;;;;;27.70;29.02;99709.63;5017845;28;1306;-25
2023/01/18 09:12:15;;;;;;;;;;;;;;;27.70;28.14;99696.13;5017752;28;976;-24
2023/01/18 09:14:40;;;;;;;;;;;;;;;27.56;28.47;99698.00;5018025;28;1136;-25
2023/01/18 09:17:06;;;;;;;;;;;;;;;27.59;28.73;99684.06;5017771;28;1029;-25
2023/01/18 09:19:31;;;;;;;;;;;;;;;27.61;29.09;99679.28;5018064;28;1918;-25
2023/01/18 09:21:57;;;;;;;;;;;;;;;27.83;28.56;99689.84;5018048;28;974;-25
2023/01/18 09:24:22;;;;;;;;;;;;;;;27.89;28.56;99677.34;5017594;28;901;-25
2023/01/18 09:26:50;;;;;;;;;;;;;;;27.87;28.37;99674.88;5018495;28;993;-26
2023/01/18 09:29:17;;;;;;;;;;;;;;;27.91;28.35;99677.94;5017486;28;1124;-26
2023/01/18 09:31:42;;;;;;;;;;;;;;;27.89;28.32;99679.22;5007996;28;926;-25
2023/01/18 09:34:07;;;;;;;;;;;;;;;27.89;28.60;99682.75;5016053;28;1099;-25
2023/01/18 09:36:33;;;;;;;;;;;;;;;27.86;28.15;99667.78;5010303;28;1100;-25
2023/01/18 09:38:58;;;;;;;;;;;;;;;27.80;28.21;99682.16;5017677;28;1073;-25
2023/01/18 09:41:56;;;;;;;;;;;;;;;27.89;28.53;99690.03;5016929;28;1901;-25
2023/01/18 09:44:29;;;;;;;;;;;;;;;27.80;28.51;99692.97;5015953;28;1284;-25
2023/01/18 09:46:56;;;;;;;;;;;;;;;27.89;28.55;99698.97;5017429;28;972;-26
2023/01/18 09:49:24;;;;;;;;;;;;;;;27.72;28.25;99688.66;5015732;28;1156;-26
2023/01/18 09:51:52;;;;;;;;;;;;;;;27.81;28.22;99702.72;5015871;28;1055;-25
2023/01/18 09:54:38;;;;;;;;;;;;;;;27.84;28.19;99693.38;5020645;28;1050;-26
2023/01/18 09:57:04;;;;;;;;;;;;;;;27.59;28.81;99691.34;5014266;28;1451;-25
2023/01/18 09:59:52;;;;;;;;;;;;;;;27.39;29.06;99700.34;5015861;28;1906;-25
2023/01/18 10:02:18;;;;;;;;;;;;;;;27.37;28.75;99697.00;5000999;28;1660;-25
2023/01/18 10:04:44;;;;;;;;;;;;;;;27.26;28.86;99685.81;5000471;28;1306;-25
2023/01/18 10:07:14;;;;;;;;;;;;;;;27.16;29.18;99687.28;5003004;28;1350;-25
2023/01/18 10:09:40;;;;;;;;;;;;;;;27.11;29.33;99701.41;5003134;28;1334;-25
2023/01/18 10:12:23;;;;;;;;;;;;;;;27.33;28.66;99702.00;5018782;28;1161;-25
2023/01/18 10:14:52;;;;;;;;;;;;;;;27.03;29.46;99694.34;5005631;28;1090;-25
2023/01/18 10:17:19;;;;;;;;;;;;;;;26.94;29.49;99696.41;5016188;28;1065;-25
2023/01/18 10:19:45;;;;;;;;;;;;;;;27.00;29.38;99695.56;5017088;28;1913;-25
2023/01/18 10:22:28;;;;;;;;;;;;;;;27.12;29.07;99700.34;5017067;28;1055;-25
2023/01/18 10:24:54;;;;;;;;;;;;;;;27.13;29.26;99694.75;5016364;28;1100;-25
2023/01/18 10:27:29;;;;;;;;;;;;;;;26.99;29.18;99698.47;5017003;28;992;-25
2023/01/18 10:30:00;;;;;;;;;;;;;;;27.00;29.22;99686.63;5016436;28;2301;-25
2023/01/18 10:32:26;;;;;;;;;;;;;;;27.13;29.33;99680.41;5016143;28;1043;-25
2023/01/18 10:34:51;;;;;;;;;;;;;;;27.10;29.26;99681.69;5017028;28;1194;-25
2023/01/18 10:37:17;;;;;;;;;;;;;;;27.14;29.15;99695.59;5016429;28;1018;-25
2023/01/18 10:39:46;;;;;;;;;;;;;;;26.80;29.75;99690.16;5017027;28;1894;-25
2023/01/18 10:42:19;;;;;;;;;;;;;;;26.73;29.65;99690.16;5007547;28;1132;-25
2023/01/18 10:44:44;;;;;;;;;;;;;;;26.85;29.60;99695.75;5008942;28;1187;-25
2023/01/18 10:47:10;;;;;;;;;;;;;;;26.88;29.54;99692.66;5015944;28;1215;-25
2023/01/18 10:49:40;;;;;;;;;;;;;;;26.91;29.37;99702.19;5016526;28;892;-25
2023/01/18 10:52:18;;;;;;;;;;;;;;;26.98;29.51;99703.03;5015445;28;1147;-25
2023/01/18 10:54:54;;;;;;;;;;;;;;;27.41;29.15;99713.63;5016272;28;1033;-26
2023/01/18 10:57:24;;;;;;;;;;;;;;;27.12;29.24;99725.50;5015415;28;1020;-25
2023/01/18 10:59:50;;;;;;;;;;;;;;;27.12;29.03;99719.25;5014317;28;1973;-26
2023/01/18 11:02:22;;;;;;;;;;;;;;;26.96;29.33;99736.66;5006844;28;1005;-25
2023/01/18 11:04:49;;;;;;;;;;;;;;;26.93;29.53;99734.34;5016492;28;1068;-25
2023/01/18 11:07:15;;;;;;;;;;;;;;;26.80;29.63;99733.31;5015177;28;1140;-25
2023/01/18 11:09:50;;;;;;;;;;;;;;;26.82;29.69;99735.81;5015020;28;1340;-25
2023/01/18 11:15:12;;;;;;;;;;;;;;;26.40;29.47;99737.59;5004167;28;921;-25
2023/01/18 11:17:37;;;;;;;;;;;;;;;26.72;29.36;99739.75;5016411;28;1083;-25
2023/01/18 11:20:06;;;;;;;;;;;;;;;26.48;29.53;99725.78;5015960;28;1903;-25
2023/01/18 11:22:32;;;;;;;;;;;;;;;26.41;30.31;99719.53;5015958;28;1064;-25
2023/01/18 11:24:57;;;;;;;;;;;;;;;26.35;30.10;99736.53;5015489;28;1144;-25
2023/01/18 11:27:23;;;;;;;;;;;;;;;26.33;29.98;99733.22;5015015;28;1171;-25
2023/01/18 11:29:49;;;;;;;;;;;;;;;26.36;29.78;99727.44;5015095;28;1766;-26
2023/01/18 11:32:31;;;;;;;;;;;;;;;26.56;29.57;99740.94;5015813;28;1053;-25
2023/01/18 11:34:57;;;;;;;;;;;;;;;26.51;29.93;99730.78;5015923;28;1099;-24
2023/01/18 11:37:27;;;;;;;;;;;;;;;26.57;29.61;99725.59;5011613;28;1341;-25
2023/01/18 11:39:52;;;;;;;;;;;;;;;26.74;29.33;99721.47;4997440;28;1977;-25
2023/01/18 11:42:29;;;;;;;;;;;;;;;26.43;30.18;99719.34;4998934;28;1306;-25
2023/01/18 11:44:57;;;;;;;;;;;;;;;26.43;29.76;99712.09;4994606;28;1288;-25
2023/01/18 11:47:25;;;;;;;;;;;;;;;26.52;29.85;99712.75;5002881;28;1299;-25
2023/01/18 11:49:57;;;;;;;;;;;;;;;26.67;29.89;99709.03;5015606;28;943;-25
2023/01/18 11:52:41;;;;;;;;;;;;;;;26.38;30.32;99699.22;5015653;28;1168;-25
2023/01/18 11:55:30;;;;;;;;;;;;;;;26.29;29.65;99679.66;5016358;28;1117;-25
2023/01/18 11:57:55;;;;;;;;;;;;;;;26.19;30.07;99678.41;5005026;28;1412;-25
2023/01/18 12:00:26;;;;;;;;;;;;;;;26.00;30.76;99675.44;5017586;28;1902;-25
2023/01/18 12:03:21;;;;;;;;;;;;;;;26.44;29.90;99692.19;5020427;28;1027;-25
2023/01/18 12:05:51;;;;;;;;;;;;;;;26.08;30.65;99675.25;5002709;28;1274;-25
2023/01/18 12:08:20;;;;;;;;;;;;;;;26.19;30.56;99664.94;5017896;28;1075;-25
2023/01/18 12:11:04;;;;;;;;;;;;;;;26.45;30.08;99672.28;5019512;28;1140;-25
2023/01/18 12:13:44;;;;;;;;;;;;;;;26.23;30.10;99655.38;5019134;28;869;-25
2023/01/18 12:16:11;;;;;;;;;;;;;;;25.97;30.89;99674.00;5017537;28;1113;-25
2023/01/18 12:19:00;;;;;;;;;;;;;;;25.93;30.61;99667.31;5019538;28;1056;-25
2023/01/18 12:21:31;;;;;;;;;;;;;;;26.43;30.03;99682.44;5008212;28;1934;-25
2023/01/18 12:23:59;;;;;;;;;;;;;;;26.33;30.26;99685.53;5018391;28;1201;-25
2023/01/18 12:26:29;;;;;;;;;;;;;;;26.18;30.25;99688.34;5018374;28;1465;-25
2023/01/18 12:28:55;;;;;;;;;;;;;;;26.08;30.38;99688.72;5017199;28;1247;-25
2023/01/18 12:31:29;;;;;;;;;;;;;;;26.17;30.33;99674.03;5020122;28;1271;-25
2023/01/18 12:34:01;;;;;;;;;;;;;;;26.09;30.42;99695.78;5018547;28;1228;-25
2023/01/18 12:36:26;;;;;;;;;;;;;;;25.89;30.68;99687.63;5017262;28;1219;-25
2023/01/18 12:38:53;;;;;;;;;;;;;;;26.09;30.25;99679.59;5019462;28;1115;-25
2023/01/18 12:41:21;;;;;;;;;;;;;;;26.09;30.43;99693.06;5017222;28;1906;-25
2023/01/18 12:43:49;;;;;;;;;;;;;;;26.17;30.46;99686.69;5018794;28;1093;-25
2023/01/18 12:46:25;;;;;;;;;;;;;;;25.92;30.74;99700.69;5018511;28;1073;-25
2023/01/18 12:48:52;;;;;;;;;;;;;;;25.78;30.77;99700.63;5018688;28;1025;-25
2023/01/18 12:51:18;;;;;;;;;;;;;;;25.89;30.85;99710.00;5017746;28;1148;-25
2023/01/18 12:53:48;;;;;;;;;;;;;;;26.04;30.64;99730.59;5017257;28;1230;-25
2023/01/18 12:56:16;;;;;;;;;;;;;;;26.00;30.70;99738.25;5017826;28;1104;-25
2023/01/18 12:58:42;;;;;;;;;;;;;;;25.97;30.67;99741.34;5018038;28;1302;-25
2023/01/18 13:01:09;;;;;;;;;;;;;;;26.68;29.51;99730.41;5011989;28;1902;-25
2023/01/18 13:03:39;;;;;;;;;;;;;;;26.48;29.77;99739.28;5009782;28;1361;-25
2023/01/18 13:06:05;;;;;;;;;;;;;;;26.28;30.26;99737.31;4997371;28;1419;-25
2023/01/18 13:08:51;;;;;;;;;;;;;;;26.55;31.18;99743.84;5000558;28;1322;-25
2023/01/18 13:11:17;;;;;;;;;;;;;;;26.46;30.70;99737.84;5005725;28;1272;-26
2023/01/18 13:13:43;;;;;;;;;;;;;;;26.85;29.42;99746.19;5002185;28;1295;-26
2023/01/18 13:16:30;;;;;;;;;;;;;;;26.26;30.44;99752.88;4998444;28;1310;-26
2023/01/18 13:18:55;;;;;;;;;;;;;;;25.94;30.79;99740.91;4999414;28;1354;-27
2023/01/18 13:21:23;;;;;;;;;;;;;;;26.09;30.78;99727.31;5000754;28;1914;-25
2023/01/18 13:23:48;;;;;;;;;;;;;;;26.50;30.16;99729.13;4999398;28;1451;-25
2023/01/18 13:26:26;;;;;;;;;;;;;;;26.27;30.02;99727.59;5008072;28;1280;-25
2023/01/18 13:29:10;;;;;;;;;;;;;;;26.17;30.33;99732.53;5017807;28;1157;-25
2023/01/18 13:31:36;;;;;;;;;;;;;;;26.34;30.69;99732.19;5017135;28;1966;-26
2023/01/18 13:34:02;;;;;;;;;;;;;;;26.60;30.02;99723.34;5017119;28;1247;-26